sensor_id;sensor_type;location;lat;lon;timestamp;P1;durP1;ratioP1;P2;durP2;ratioP2
70122;SDS011;57489;37.404;24.920;2023-03-01T00:03:31;14.55;;;8.77;;
70122;SDS011;57489;37.404;24.920;2023-03-01T00:08:33;15.27;;;8.90;;
70122;SDS011;57489;37.404;24.920;2023-03-01T00:13:34;15.65;;;9.15;;
70122;SDS011;57489;37.404;24.920;2023-03-01T00:18:35;14.70;;;8.93;;
70122;SDS011;57489;37.404;24.920;2023-03-01T00:23:36;14.57;;;8.57;;
70122;SDS011;57489;37.404;24.920;2023-03-01T00:28:37;14.83;;;8.87;;
70122;SDS011;57489;37.404;24.920;2023-03-01T00:33:38;13.70;;;8.80;;
70122;SDS011;57489;37.404;24.920;2023-03-01T00:38:41;14.60;;;8.43;;
70122;SDS011;57489;37.404;24.920;2023-03-01T00:43:43;15.32;;;8.85;;
70122;SDS011;57489;37.404;24.920;2023-03-01T00:48:44;13.23;;;9.05;;
70122;SDS011;57489;37.404;24.920;2023-03-01T00:53:45;13.30;;;7.90;;
70122;SDS011;57489;37.404;24.920;2023-03-01T00:58:46;13.18;;;8.30;;
70122;SDS011;57489;37.404;24.920;2023-03-01T01:03:51;12.43;;;8.27;;
70122;SDS011;57489;37.404;24.920;2023-03-01T01:09:02;13.43;;;8.65;;
70122;SDS011;57489;37.404;24.920;2023-03-01T01:14:04;13.47;;;8.43;;
70122;SDS011;57489;37.404;24.920;2023-03-01T01:19:05;13.97;;;7.93;;
70122;SDS011;57489;37.404;24.920;2023-03-01T01:24:06;14.13;;;8.07;;
70122;SDS011;57489;37.404;24.920;2023-03-01T01:29:06;12.30;;;7.67;;
70122;SDS011;57489;37.404;24.920;2023-03-01T01:34:08;15.05;;;8.07;;
70122;SDS011;57489;37.404;24.920;2023-03-01T01:39:12;12.60;;;7.90;;
70122;SDS011;57489;37.404;24.920;2023-03-01T01:49:26;12.43;;;7.93;;
70122;SDS011;57489;37.404;24.920;2023-03-01T01:54:31;13.27;;;8.10;;
70122;SDS011;57489;37.404;24.920;2023-03-01T01:59:38;14.63;;;8.10;;
70122;SDS011;57489;37.404;24.920;2023-03-01T02:04:41;14.50;;;8.30;;
70122;SDS011;57489;37.404;24.920;2023-03-01T02:09:47;13.10;;;7.28;;
70122;SDS011;57489;37.404;24.920;2023-03-01T02:14:49;11.43;;;7.57;;
70122;SDS011;57489;37.404;24.920;2023-03-01T02:30:04;12.60;;;7.97;;
70122;SDS011;57489;37.404;24.920;2023-03-01T02:35:05;13.38;;;7.63;;
70122;SDS011;57489;37.404;24.920;2023-03-01T02:40:07;12.10;;;7.60;;
70122;SDS011;57489;37.404;24.920;2023-03-01T02:45:12;9.85;;;6.38;;
70122;SDS011;57489;37.404;24.920;2023-03-01T02:50:15;11.97;;;7.50;;
70122;SDS011;57489;37.404;24.920;2023-03-01T02:55:28;14.57;;;7.30;;
70122;SDS011;57489;37.404;24.920;2023-03-01T03:00:36;11.50;;;7.37;;
70122;SDS011;57489;37.404;24.920;2023-03-01T03:05:39;11.80;;;7.28;;
70122;SDS011;57489;37.404;24.920;2023-03-01T03:10:40;11.37;;;6.80;;
70122;SDS011;57489;37.404;24.920;2023-03-01T03:15:42;11.27;;;6.80;;
70122;SDS011;57489;37.404;24.920;2023-03-01T03:20:44;14.67;;;7.43;;
70122;SDS011;57489;37.404;24.920;2023-03-01T03:25:47;12.73;;;6.97;;
70122;SDS011;57489;37.404;24.920;2023-03-01T03:30:49;11.68;;;7.18;;
70122;SDS011;57489;37.404;24.920;2023-03-01T03:35:49;11.17;;;7.20;;
70122;SDS011;57489;37.404;24.920;2023-03-01T03:41:06;11.20;;;7.00;;
70122;SDS011;57489;37.404;24.920;2023-03-01T03:46:08;11.88;;;6.85;;
70122;SDS011;57489;37.404;24.920;2023-03-01T03:51:10;10.43;;;6.53;;
70122;SDS011;57489;37.404;24.920;2023-03-01T03:56:12;11.30;;;6.90;;
70122;SDS011;57489;37.404;24.920;2023-03-01T04:01:13;11.52;;;6.70;;
70122;SDS011;57489;37.404;24.920;2023-03-01T04:06:14;12.07;;;7.30;;
70122;SDS011;57489;37.404;24.920;2023-03-01T04:11:14;11.87;;;6.63;;
70122;SDS011;57489;37.404;24.920;2023-03-01T04:16:15;12.90;;;7.07;;
70122;SDS011;57489;37.404;24.920;2023-03-01T04:21:16;11.73;;;6.33;;
70122;SDS011;57489;37.404;24.920;2023-03-01T04:26:16;13.67;;;7.67;;
70122;SDS011;57489;37.404;24.920;2023-03-01T04:31:17;11.70;;;6.80;;
70122;SDS011;57489;37.404;24.920;2023-03-01T04:36:20;11.98;;;6.85;;
70122;SDS011;57489;37.404;24.920;2023-03-01T04:41:23;10.55;;;6.20;;
70122;SDS011;57489;37.404;24.920;2023-03-01T04:46:25;14.00;;;6.93;;
70122;SDS011;57489;37.404;24.920;2023-03-01T04:51:25;10.97;;;6.57;;
70122;SDS011;57489;37.404;24.920;2023-03-01T04:56:26;10.63;;;6.53;;
70122;SDS011;57489;37.404;24.920;2023-03-01T05:01:26;10.10;;;6.13;;
70122;SDS011;57489;37.404;24.920;2023-03-01T05:06:27;9.97;;;6.13;;
70122;SDS011;57489;37.404;24.920;2023-03-01T05:11:27;12.63;;;6.50;;
70122;SDS011;57489;37.404;24.920;2023-03-01T05:16:28;13.20;;;6.90;;
70122;SDS011;57489;37.404;24.920;2023-03-01T05:21:28;11.67;;;6.60;;
70122;SDS011;57489;37.404;24.920;2023-03-01T05:26:28;10.37;;;6.00;;
70122;SDS011;57489;37.404;24.920;2023-03-01T05:31:29;11.00;;;6.23;;
70122;SDS011;57489;37.404;24.920;2023-03-01T05:36:29;11.00;;;6.27;;
70122;SDS011;57489;37.404;24.920;2023-03-01T05:41:30;10.47;;;6.37;;
70122;SDS011;57489;37.404;24.920;2023-03-01T05:46:30;11.97;;;7.17;;
70122;SDS011;57489;37.404;24.920;2023-03-01T05:51:30;12.67;;;7.30;;
70122;SDS011;57489;37.404;24.920;2023-03-01T05:56:34;13.70;;;7.57;;
70122;SDS011;57489;37.404;24.920;2023-03-01T06:01:36;19.27;;;8.60;;
70122;SDS011;57489;37.404;24.920;2023-03-01T06:06:36;17.03;;;8.17;;
70122;SDS011;57489;37.404;24.920;2023-03-01T06:11:37;21.58;;;10.05;;
70122;SDS011;57489;37.404;24.920;2023-03-01T06:16:38;22.20;;;10.40;;
70122;SDS011;57489;37.404;24.920;2023-03-01T06:21:38;21.60;;;9.77;;
70122;SDS011;57489;37.404;24.920;2023-03-01T06:26:38;19.07;;;9.53;;
70122;SDS011;57489;37.404;24.920;2023-03-01T06:31:39;29.90;;;10.80;;
70122;SDS011;57489;37.404;24.920;2023-03-01T06:36:39;31.93;;;11.60;;
70122;SDS011;57489;37.404;24.920;2023-03-01T06:41:40;26.27;;;10.77;;
70122;SDS011;57489;37.404;24.920;2023-03-01T06:46:40;25.23;;;10.30;;
70122;SDS011;57489;37.404;24.920;2023-03-01T06:51:41;29.90;;;11.00;;
70122;SDS011;57489;37.404;24.920;2023-03-01T06:56:41;23.97;;;11.17;;
70122;SDS011;57489;37.404;24.920;2023-03-01T07:01:42;24.53;;;10.00;;
70122;SDS011;57489;37.404;24.920;2023-03-01T07:06:42;22.23;;;10.13;;
70122;SDS011;57489;37.404;24.920;2023-03-01T07:11:43;21.43;;;10.53;;
70122;SDS011;57489;37.404;24.920;2023-03-01T07:16:43;20.20;;;10.70;;
70122;SDS011;57489;37.404;24.920;2023-03-01T07:21:44;21.37;;;11.73;;
70122;SDS011;57489;37.404;24.920;2023-03-01T07:26:47;22.53;;;12.13;;
70122;SDS011;57489;37.404;24.920;2023-03-01T07:31:49;21.65;;;12.27;;
70122;SDS011;57489;37.404;24.920;2023-03-01T07:36:49;23.87;;;11.50;;
70122;SDS011;57489;37.404;24.920;2023-03-01T07:41:50;25.87;;;13.37;;
70122;SDS011;57489;37.404;24.920;2023-03-01T07:46:51;29.17;;;13.60;;
70122;SDS011;57489;37.404;24.920;2023-03-01T07:51:51;22.20;;;11.80;;
70122;SDS011;57489;37.404;24.920;2023-03-01T07:56:52;25.48;;;11.55;;
70122;SDS011;57489;37.404;24.920;2023-03-01T08:01:53;24.20;;;11.83;;
70122;SDS011;57489;37.404;24.920;2023-03-01T08:06:54;22.97;;;10.93;;
70122;SDS011;57489;37.404;24.920;2023-03-01T08:11:56;24.37;;;12.23;;
70122;SDS011;57489;37.404;24.920;2023-03-01T08:16:57;26.83;;;12.37;;
70122;SDS011;57489;37.404;24.920;2023-03-01T08:21:57;22.80;;;11.90;;
70122;SDS011;57489;37.404;24.920;2023-03-01T08:26:57;26.17;;;11.17;;
70122;SDS011;57489;37.404;24.920;2023-03-01T08:31:58;26.70;;;11.40;;
70122;SDS011;57489;37.404;24.920;2023-03-01T08:36:59;18.77;;;10.43;;
70122;SDS011;57489;37.404;24.920;2023-03-01T08:41:59;24.88;;;11.68;;
70122;SDS011;57489;37.404;24.920;2023-03-01T08:47:00;20.20;;;11.13;;
70122;SDS011;57489;37.404;24.920;2023-03-01T08:52:01;24.63;;;11.27;;
70122;SDS011;57489;37.404;24.920;2023-03-01T08:57:02;18.30;;;10.77;;
70122;SDS011;57489;37.404;24.920;2023-03-01T09:02:08;26.75;;;11.27;;
70122;SDS011;57489;37.404;24.920;2023-03-01T09:07:12;25.88;;;11.55;;
70122;SDS011;57489;37.404;24.920;2023-03-01T09:12:12;30.97;;;12.93;;
70122;SDS011;57489;37.404;24.920;2023-03-01T09:17:13;19.60;;;10.53;;
70122;SDS011;57489;37.404;24.920;2023-03-01T09:22:13;21.90;;;10.50;;
70122;SDS011;57489;37.404;24.920;2023-03-01T09:27:14;22.50;;;11.07;;
70122;SDS011;57489;37.404;24.920;2023-03-01T09:32:14;21.03;;;10.80;;
70122;SDS011;57489;37.404;24.920;2023-03-01T09:37:15;24.37;;;12.00;;
70122;SDS011;57489;37.404;24.920;2023-03-01T09:42:15;18.13;;;10.77;;
70122;SDS011;57489;37.404;24.920;2023-03-01T09:47:20;20.27;;;11.60;;
70122;SDS011;57489;37.404;24.920;2023-03-01T09:52:30;24.17;;;12.00;;
70122;SDS011;57489;37.404;24.920;2023-03-01T09:57:36;27.00;;;11.15;;
70122;SDS011;57489;37.404;24.920;2023-03-01T10:02:56;21.25;;;10.90;;
70122;SDS011;57489;37.404;24.920;2023-03-01T10:08:33;25.27;;;12.10;;
70122;SDS011;57489;37.404;24.920;2023-03-01T10:13:43;21.50;;;10.90;;
70122;SDS011;57489;37.404;24.920;2023-03-01T10:18:53;21.35;;;10.77;;
70122;SDS011;57489;37.404;24.920;2023-03-01T10:24:04;19.98;;;11.77;;
70122;SDS011;57489;37.404;24.920;2023-03-01T10:29:12;24.40;;;12.33;;
70122;SDS011;57489;37.404;24.920;2023-03-01T10:34:17;20.10;;;12.05;;
70122;SDS011;57489;37.404;24.920;2023-03-01T10:39:23;23.75;;;11.45;;
70122;SDS011;57489;37.404;24.920;2023-03-01T10:44:44;23.73;;;11.70;;
70122;SDS011;57489;37.404;24.920;2023-03-01T10:49:53;21.95;;;11.00;;
70122;SDS011;57489;37.404;24.920;2023-03-01T10:54:57;19.15;;;10.80;;
70122;SDS011;57489;37.404;24.920;2023-03-01T11:00:02;24.27;;;11.33;;
70122;SDS011;57489;37.404;24.920;2023-03-01T11:05:20;23.83;;;11.13;;
70122;SDS011;57489;37.404;24.920;2023-03-01T11:15:27;24.40;;;11.27;;
70122;SDS011;57489;37.404;24.920;2023-03-01T11:20:37;23.33;;;11.23;;
70122;SDS011;57489;37.404;24.920;2023-03-01T11:25:58;22.30;;;10.93;;
70122;SDS011;57489;37.404;24.920;2023-03-01T11:31:03;21.80;;;11.20;;
70122;SDS011;57489;37.404;24.920;2023-03-01T11:36:07;21.33;;;10.97;;
70122;SDS011;57489;37.404;24.920;2023-03-01T11:46:24;17.58;;;10.30;;
70122;SDS011;57489;37.404;24.920;2023-03-01T11:56:50;20.13;;;10.85;;
70122;SDS011;57489;37.404;24.920;2023-03-01T12:02:07;17.65;;;11.02;;
70122;SDS011;57489;37.404;24.920;2023-03-01T12:07:26;18.10;;;10.70;;
70122;SDS011;57489;37.404;24.920;2023-03-01T12:28:48;23.87;;;10.97;;
70122;SDS011;57489;37.404;24.920;2023-03-01T12:33:59;22.88;;;10.55;;
70122;SDS011;57489;37.404;24.920;2023-03-01T12:44:44;19.93;;;10.90;;
70122;SDS011;57489;37.404;24.920;2023-03-01T12:49:49;27.33;;;10.77;;
70122;SDS011;57489;37.404;24.920;2023-03-01T12:54:55;23.67;;;10.20;;
70122;SDS011;57489;37.404;24.920;2023-03-01T13:00:11;30.27;;;11.37;;
70122;SDS011;57489;37.404;24.920;2023-03-01T13:15:56;25.60;;;10.77;;
70122;SDS011;57489;37.404;24.920;2023-03-01T13:20:59;25.10;;;11.40;;
70122;SDS011;57489;37.404;24.920;2023-03-01T13:31:04;26.20;;;11.18;;
70122;SDS011;57489;37.404;24.920;2023-03-01T13:36:06;20.33;;;10.90;;
70122;SDS011;57489;37.404;24.920;2023-03-01T13:41:07;24.23;;;10.27;;
70122;SDS011;57489;37.404;24.920;2023-03-01T13:46:09;17.27;;;9.60;;
70122;SDS011;57489;37.404;24.920;2023-03-01T13:51:26;21.48;;;9.90;;
70122;SDS011;57489;37.404;24.920;2023-03-01T13:56:28;19.50;;;10.50;;
70122;SDS011;57489;37.404;24.920;2023-03-01T14:01:35;19.57;;;10.13;;
70122;SDS011;57489;37.404;24.920;2023-03-01T14:06:35;23.48;;;10.35;;
70122;SDS011;57489;37.404;24.920;2023-03-01T14:27:19;22.57;;;10.23;;
70122;SDS011;57489;37.404;24.920;2023-03-01T14:32:21;17.83;;;9.88;;
70122;SDS011;57489;37.404;24.920;2023-03-01T14:37:27;22.83;;;9.60;;
70122;SDS011;57489;37.404;24.920;2023-03-01T14:42:30;19.80;;;9.77;;
70122;SDS011;57489;37.404;24.920;2023-03-01T14:47:35;13.90;;;9.10;;
70122;SDS011;57489;37.404;24.920;2023-03-01T14:52:38;18.80;;;9.88;;
70122;SDS011;57489;37.404;24.920;2023-03-01T14:57:42;20.17;;;9.38;;
70122;SDS011;57489;37.404;24.920;2023-03-01T15:02:44;21.50;;;9.87;;
70122;SDS011;57489;37.404;24.920;2023-03-01T15:07:47;19.88;;;9.77;;
70122;SDS011;57489;37.404;24.920;2023-03-01T15:12:48;22.47;;;10.70;;
70122;SDS011;57489;37.404;24.920;2023-03-01T15:17:53;23.48;;;10.82;;
70122;SDS011;57489;37.404;24.920;2023-03-01T15:22:55;22.17;;;11.20;;
70122;SDS011;57489;37.404;24.920;2023-03-01T15:27:57;21.15;;;10.95;;
70122;SDS011;57489;37.404;24.920;2023-03-01T15:33:18;19.85;;;11.55;;
70122;SDS011;57489;37.404;24.920;2023-03-01T15:38:50;21.67;;;11.40;;
70122;SDS011;57489;37.404;24.920;2023-03-01T15:43:53;21.15;;;11.98;;
70122;SDS011;57489;37.404;24.920;2023-03-01T15:48:55;26.60;;;12.27;;
70122;SDS011;57489;37.404;24.920;2023-03-01T15:53:58;26.80;;;11.37;;
70122;SDS011;57489;37.404;24.920;2023-03-01T15:59:01;22.38;;;11.48;;
70122;SDS011;57489;37.404;24.920;2023-03-01T16:04:02;25.65;;;12.63;;
70122;SDS011;57489;37.404;24.920;2023-03-01T16:09:02;22.40;;;11.87;;
70122;SDS011;57489;37.404;24.920;2023-03-01T16:14:03;20.87;;;11.67;;
70122;SDS011;57489;37.404;24.920;2023-03-01T16:19:03;21.03;;;11.57;;
70122;SDS011;57489;37.404;24.920;2023-03-01T16:24:04;24.10;;;12.63;;
70122;SDS011;57489;37.404;24.920;2023-03-01T16:29:04;24.13;;;11.15;;
70122;SDS011;57489;37.404;24.920;2023-03-01T16:34:05;23.23;;;12.63;;
70122;SDS011;57489;37.404;24.920;2023-03-01T16:39:06;22.97;;;12.03;;
70122;SDS011;57489;37.404;24.920;2023-03-01T16:44:06;26.90;;;12.33;;
70122;SDS011;57489;37.404;24.920;2023-03-01T16:49:08;25.17;;;11.40;;
70122;SDS011;57489;37.404;24.920;2023-03-01T16:54:08;24.77;;;12.30;;
70122;SDS011;57489;37.404;24.920;2023-03-01T16:59:09;22.77;;;11.17;;
70122;SDS011;57489;37.404;24.920;2023-03-01T17:04:10;28.33;;;11.63;;
70122;SDS011;57489;37.404;24.920;2023-03-01T17:09:12;23.15;;;11.75;;
70122;SDS011;57489;37.404;24.920;2023-03-01T17:14:12;23.80;;;11.30;;
70122;SDS011;57489;37.404;24.920;2023-03-01T17:19:13;20.90;;;12.00;;
70122;SDS011;57489;37.404;24.920;2023-03-01T17:24:13;22.10;;;11.63;;
70122;SDS011;57489;37.404;24.920;2023-03-01T17:29:14;22.42;;;12.00;;
70122;SDS011;57489;37.404;24.920;2023-03-01T17:34:14;22.87;;;10.97;;
70122;SDS011;57489;37.404;24.920;2023-03-01T17:39:15;19.80;;;10.73;;
70122;SDS011;57489;37.404;24.920;2023-03-01T17:44:15;22.67;;;11.10;;
70122;SDS011;57489;37.404;24.920;2023-03-01T17:49:16;19.37;;;10.77;;
70122;SDS011;57489;37.404;24.920;2023-03-01T17:54:16;23.30;;;11.13;;
70122;SDS011;57489;37.404;24.920;2023-03-01T17:59:17;23.03;;;10.77;;
70122;SDS011;57489;37.404;24.920;2023-03-01T18:04:18;19.67;;;9.90;;
70122;SDS011;57489;37.404;24.920;2023-03-01T18:09:19;20.90;;;10.18;;
70122;SDS011;57489;37.404;24.920;2023-03-01T18:14:19;23.03;;;10.90;;
70122;SDS011;57489;37.404;24.920;2023-03-01T18:19:20;21.27;;;10.50;;
70122;SDS011;57489;37.404;24.920;2023-03-01T18:24:20;21.57;;;10.53;;
70122;SDS011;57489;37.404;24.920;2023-03-01T18:29:21;19.00;;;10.23;;
70122;SDS011;57489;37.404;24.920;2023-03-01T18:34:21;23.67;;;11.33;;
70122;SDS011;57489;37.404;24.920;2023-03-01T18:39:22;22.67;;;10.80;;
70122;SDS011;57489;37.404;24.920;2023-03-01T18:44:23;17.70;;;10.25;;
70122;SDS011;57489;37.404;24.920;2023-03-01T18:49:23;19.00;;;10.63;;
70122;SDS011;57489;37.404;24.920;2023-03-01T18:54:24;19.87;;;9.57;;
70122;SDS011;57489;37.404;24.920;2023-03-01T18:59:24;20.63;;;11.17;;
70122;SDS011;57489;37.404;24.920;2023-03-01T19:04:25;21.03;;;10.57;;
70122;SDS011;57489;37.404;24.920;2023-03-01T19:09:25;24.07;;;9.73;;
70122;SDS011;57489;37.404;24.920;2023-03-01T19:14:26;24.70;;;10.40;;
70122;SDS011;57489;37.404;24.920;2023-03-01T19:19:26;19.80;;;10.47;;
70122;SDS011;57489;37.404;24.920;2023-03-01T19:24:27;22.00;;;10.83;;
70122;SDS011;57489;37.404;24.920;2023-03-01T19:29:27;20.67;;;10.68;;
70122;SDS011;57489;37.404;24.920;2023-03-01T19:34:28;21.27;;;9.87;;
70122;SDS011;57489;37.404;24.920;2023-03-01T19:39:28;17.10;;;9.70;;
70122;SDS011;57489;37.404;24.920;2023-03-01T19:44:29;26.83;;;10.47;;
70122;SDS011;57489;37.404;24.920;2023-03-01T19:49:29;21.43;;;10.27;;
70122;SDS011;57489;37.404;24.920;2023-03-01T19:54:30;20.37;;;10.30;;
70122;SDS011;57489;37.404;24.920;2023-03-01T19:59:30;19.07;;;10.67;;
70122;SDS011;57489;37.404;24.920;2023-03-01T20:04:31;23.00;;;9.63;;
70122;SDS011;57489;37.404;24.920;2023-03-01T20:09:31;26.40;;;11.13;;
70122;SDS011;57489;37.404;24.920;2023-03-01T20:14:31;21.37;;;10.47;;
70122;SDS011;57489;37.404;24.920;2023-03-01T20:19:32;21.53;;;10.90;;
70122;SDS011;57489;37.404;24.920;2023-03-01T20:24:32;20.27;;;10.70;;
70122;SDS011;57489;37.404;24.920;2023-03-01T20:29:33;23.43;;;9.47;;
70122;SDS011;57489;37.404;24.920;2023-03-01T20:34:34;19.27;;;10.03;;
70122;SDS011;57489;37.404;24.920;2023-03-01T20:39:36;20.38;;;10.13;;
70122;SDS011;57489;37.404;24.920;2023-03-01T20:44:36;18.63;;;9.83;;
70122;SDS011;57489;37.404;24.920;2023-03-01T20:49:37;20.97;;;10.07;;
70122;SDS011;57489;37.404;24.920;2023-03-01T20:54:37;18.90;;;10.10;;
70122;SDS011;57489;37.404;24.920;2023-03-01T20:59:38;18.90;;;9.70;;
70122;SDS011;57489;37.404;24.920;2023-03-01T21:04:38;21.10;;;10.45;;
70122;SDS011;57489;37.404;24.920;2023-03-01T21:09:40;18.33;;;10.20;;
70122;SDS011;57489;37.404;24.920;2023-03-01T21:14:40;16.70;;;9.13;;
70122;SDS011;57489;37.404;24.920;2023-03-01T21:19:41;19.05;;;10.02;;
70122;SDS011;57489;37.404;24.920;2023-03-01T21:24:43;21.10;;;10.13;;
70122;SDS011;57489;37.404;24.920;2023-03-01T21:29:44;19.88;;;9.93;;
70122;SDS011;57489;37.404;24.920;2023-03-01T21:34:45;18.87;;;10.50;;
70122;SDS011;57489;37.404;24.920;2023-03-01T21:39:46;19.25;;;9.20;;
70122;SDS011;57489;37.404;24.920;2023-03-01T21:44:46;17.53;;;9.63;;
70122;SDS011;57489;37.404;24.920;2023-03-01T21:49:47;17.83;;;9.90;;
70122;SDS011;57489;37.404;24.920;2023-03-01T21:54:49;18.77;;;10.40;;
70122;SDS011;57489;37.404;24.920;2023-03-01T21:59:50;19.42;;;10.13;;
70122;SDS011;57489;37.404;24.920;2023-03-01T22:04:51;20.10;;;9.47;;
70122;SDS011;57489;37.404;24.920;2023-03-01T22:09:52;21.67;;;9.77;;
70122;SDS011;57489;37.404;24.920;2023-03-01T22:14:52;16.80;;;9.17;;
70122;SDS011;57489;37.404;24.920;2023-03-01T22:19:53;18.03;;;9.27;;
70122;SDS011;57489;37.404;24.920;2023-03-01T22:24:53;18.20;;;9.97;;
70122;SDS011;57489;37.404;24.920;2023-03-01T22:29:54;19.03;;;9.17;;
70122;SDS011;57489;37.404;24.920;2023-03-01T22:34:54;19.90;;;9.13;;
70122;SDS011;57489;37.404;24.920;2023-03-01T22:39:55;19.47;;;9.67;;
70122;SDS011;57489;37.404;24.920;2023-03-01T22:44:55;21.00;;;9.63;;
70122;SDS011;57489;37.404;24.920;2023-03-01T22:49:55;18.20;;;10.30;;
70122;SDS011;57489;37.404;24.920;2023-03-01T22:54:56;17.65;;;9.80;;
70122;SDS011;57489;37.404;24.920;2023-03-01T22:59:56;17.87;;;9.07;;
70122;SDS011;57489;37.404;24.920;2023-03-01T23:04:57;16.80;;;8.87;;
70122;SDS011;57489;37.404;24.920;2023-03-01T23:09:57;16.97;;;9.37;;
70122;SDS011;57489;37.404;24.920;2023-03-01T23:14:58;17.17;;;9.03;;
70122;SDS011;57489;37.404;24.920;2023-03-01T23:19:58;20.63;;;8.80;;
70122;SDS011;57489;37.404;24.920;2023-03-01T23:24:59;18.13;;;10.03;;
70122;SDS011;57489;37.404;24.920;2023-03-01T23:29:59;18.87;;;9.13;;
70122;SDS011;57489;37.404;24.920;2023-03-01T23:35:00;19.20;;;9.43;;
70122;SDS011;57489;37.404;24.920;2023-03-01T23:40:00;18.73;;;9.77;;
70122;SDS011;57489;37.404;24.920;2023-03-01T23:45:00;19.43;;;9.20;;
70122;SDS011;57489;37.404;24.920;2023-03-01T23:50:01;18.73;;;8.83;;
70122;SDS011;57489;37.404;24.920;2023-03-01T23:55:02;18.20;;;9.38;;
